sensor_id;sensor_type;location;lat;lon;timestamp;temperature;humidity
21906;DHT22;11117;48.644;9.006;2022-10-14T00:01:09;13.40;99.90
21906;DHT22;11117;48.644;9.006;2022-10-14T00:03:36;13.40;99.90
21906;DHT22;11117;48.644;9.006;2022-10-14T00:06:11;13.40;99.90
21906;DHT22;11117;48.644;9.006;2022-10-14T00:08:37;13.40;99.90
21906;DHT22;11117;48.644;9.006;2022-10-14T00:11:08;13.40;99.90
21906;DHT22;11117;48.644;9.006;2022-10-14T00:13:34;13.40;99.90
21906;DHT22;11117;48.644;9.006;2022-10-14T00:16:00;13.40;99.90
21906;DHT22;11117;48.644;9.006;2022-10-14T00:18:26;13.40;99.90
21906;DHT22;11117;48.644;9.006;2022-10-14T00:20:56;13.50;99.90
21906;DHT22;11117;48.644;9.006;2022-10-14T00:23:23;13.50;99.90
21906;DHT22;11117;48.644;9.006;2022-10-14T00:25:48;13.50;99.90
21906;DHT22;11117;48.644;9.006;2022-10-14T00:28:14;13.50;99.90
21906;DHT22;11117;48.644;9.006;2022-10-14T00:30:40;13.50;99.90
21906;DHT22;11117;48.644;9.006;2022-10-14T00:33:05;13.50;99.90
21906;DHT22;11117;48.644;9.006;2022-10-14T00:35:31;13.50;99.90
21906;DHT22;11117;48.644;9.006;2022-10-14T00:37:57;13.50;99.90
21906;DHT22;11117;48.644;9.006;2022-10-14T00:40:23;13.50;99.90
21906;DHT22;11117;48.644;9.006;2022-10-14T00:42:48;13.50;99.90
21906;DHT22;11117;48.644;9.006;2022-10-14T00:45:19;13.50;99.90
21906;DHT22;11117;48.644;9.006;2022-10-14T00:47:45;13.50;99.90
21906;DHT22;11117;48.644;9.006;2022-10-14T00:50:14;13.50;99.90
21906;DHT22;11117;48.644;9.006;2022-10-14T00:52:41;13.50;99.90
21906;DHT22;11117;48.644;9.006;2022-10-14T00:55:13;13.60;99.90
21906;DHT22;11117;48.644;9.006;2022-10-14T00:57:40;13.60;99.90
21906;DHT22;11117;48.644;9.006;2022-10-14T01:00:09;13.60;99.90
21906;DHT22;11117;48.644;9.006;2022-10-14T01:02:35;13.60;99.90
21906;DHT22;11117;48.644;9.006;2022-10-14T01:05:02;13.50;99.90
21906;DHT22;11117;48.644;9.006;2022-10-14T01:10:43;13.60;99.90
21906;DHT22;11117;48.644;9.006;2022-10-14T01:16:34;13.60;99.90
21906;DHT22;11117;48.644;9.006;2022-10-14T01:19:19;13.60;99.90
21906;DHT22;11117;48.644;9.006;2022-10-14T01:21:55;13.60;99.90
21906;DHT22;11117;48.644;9.006;2022-10-14T01:24:39;13.60;99.90
21906;DHT22;11117;48.644;9.006;2022-10-14T01:29:59;13.60;99.90
21906;DHT22;11117;48.644;9.006;2022-10-14T01:38:47;13.60;99.90
21906;DHT22;11117;48.644;9.006;2022-10-14T01:42:24;13.60;99.90
21906;DHT22;11117;48.644;9.006;2022-10-14T01:44:45;13.70;99.90
21906;DHT22;11117;48.644;9.006;2022-10-14T01:47:15;13.60;99.90
21906;DHT22;11117;48.644;9.006;2022-10-14T01:49:56;13.60;99.90
21906;DHT22;11117;48.644;9.006;2022-10-14T01:52:31;13.60;99.90
21906;DHT22;11117;48.644;9.006;2022-10-14T01:55:06;13.40;99.90
21906;DHT22;11117;48.644;9.006;2022-10-14T01:57:36;13.30;99.90
21906;DHT22;11117;48.644;9.006;2022-10-14T02:00:04;13.20;99.90
21906;DHT22;11117;48.644;9.006;2022-10-14T02:02:29;13.20;99.90
21906;DHT22;11117;48.644;9.006;2022-10-14T02:04:59;13.10;99.90
21906;DHT22;11117;48.644;9.006;2022-10-14T02:07:48;13.20;99.90
21906;DHT22;11117;48.644;9.006;2022-10-14T02:10:45;13.20;99.90
21906;DHT22;11117;48.644;9.006;2022-10-14T02:13:54;13.20;99.90
21906;DHT22;11117;48.644;9.006;2022-10-14T02:16:29;13.20;99.90
21906;DHT22;11117;48.644;9.006;2022-10-14T02:19:07;13.20;99.90
21906;DHT22;11117;48.644;9.006;2022-10-14T02:21:42;13.20;99.90
21906;DHT22;11117;48.644;9.006;2022-10-14T02:24:13;13.20;99.90
21906;DHT22;11117;48.644;9.006;2022-10-14T02:26:47;13.10;99.90
21906;DHT22;11117;48.644;9.006;2022-10-14T02:29:14;13.10;99.90
21906;DHT22;11117;48.644;9.006;2022-10-14T02:31:43;13.10;99.90
21906;DHT22;11117;48.644;9.006;2022-10-14T02:34:11;13.10;99.90
21906;DHT22;11117;48.644;9.006;2022-10-14T02:36:39;13.20;99.90
21906;DHT22;11117;48.644;9.006;2022-10-14T02:39:06;13.20;99.90
21906;DHT22;11117;48.644;9.006;2022-10-14T02:41:34;13.30;99.90
21906;DHT22;11117;48.644;9.006;2022-10-14T02:44:04;13.30;99.90
21906;DHT22;11117;48.644;9.006;2022-10-14T02:46:31;13.40;99.90
21906;DHT22;11117;48.644;9.006;2022-10-14T02:48:56;13.40;99.90
21906;DHT22;11117;48.644;9.006;2022-10-14T02:51:22;13.40;99.90
21906;DHT22;11117;48.644;9.006;2022-10-14T02:53:48;13.50;99.90
21906;DHT22;11117;48.644;9.006;2022-10-14T02:56:13;13.50;99.90
21906;DHT22;11117;48.644;9.006;2022-10-14T02:58:43;13.50;99.90
21906;DHT22;11117;48.644;9.006;2022-10-14T03:01:09;13.50;99.90
21906;DHT22;11117;48.644;9.006;2022-10-14T03:03:34;13.50;99.90
21906;DHT22;11117;48.644;9.006;2022-10-14T03:06:00;13.50;99.90
21906;DHT22;11117;48.644;9.006;2022-10-14T03:08:25;13.50;99.90
21906;DHT22;11117;48.644;9.006;2022-10-14T03:10:51;13.50;99.90
21906;DHT22;11117;48.644;9.006;2022-10-14T03:13:16;13.50;99.90
21906;DHT22;11117;48.644;9.006;2022-10-14T03:15:42;13.50;99.90
21906;DHT22;11117;48.644;9.006;2022-10-14T03:18:08;13.50;99.90
21906;DHT22;11117;48.644;9.006;2022-10-14T03:20:33;13.50;99.90
21906;DHT22;11117;48.644;9.006;2022-10-14T03:23:01;13.50;99.90
21906;DHT22;11117;48.644;9.006;2022-10-14T03:25:27;13.50;99.90
21906;DHT22;11117;48.644;9.006;2022-10-14T03:27:52;13.50;99.90
21906;DHT22;11117;48.644;9.006;2022-10-14T03:30:18;13.60;99.90
21906;DHT22;11117;48.644;9.006;2022-10-14T03:32:43;13.60;99.90
21906;DHT22;11117;48.644;9.006;2022-10-14T03:35:09;13.50;99.90
21906;DHT22;11117;48.644;9.006;2022-10-14T03:37:35;13.60;99.90
21906;DHT22;11117;48.644;9.006;2022-10-14T03:40:00;13.50;99.90
21906;DHT22;11117;48.644;9.006;2022-10-14T03:42:26;13.60;99.90
21906;DHT22;11117;48.644;9.006;2022-10-14T03:44:51;13.50;99.90
21906;DHT22;11117;48.644;9.006;2022-10-14T03:47:17;13.50;99.90
21906;DHT22;11117;48.644;9.006;2022-10-14T03:49:42;13.50;99.90
21906;DHT22;11117;48.644;9.006;2022-10-14T03:52:08;13.50;99.90
21906;DHT22;11117;48.644;9.006;2022-10-14T03:54:34;13.50;99.90
21906;DHT22;11117;48.644;9.006;2022-10-14T03:56:59;13.40;99.90
21906;DHT22;11117;48.644;9.006;2022-10-14T03:59:25;13.40;99.90
21906;DHT22;11117;48.644;9.006;2022-10-14T04:01:50;13.50;99.90
21906;DHT22;11117;48.644;9.006;2022-10-14T04:04:16;13.50;99.90
21906;DHT22;11117;48.644;9.006;2022-10-14T04:06:42;13.50;99.90
21906;DHT22;11117;48.644;9.006;2022-10-14T04:09:07;13.50;99.90
21906;DHT22;11117;48.644;9.006;2022-10-14T04:11:33;13.50;99.90
21906;DHT22;11117;48.644;9.006;2022-10-14T04:13:59;13.50;99.90
21906;DHT22;11117;48.644;9.006;2022-10-14T04:16:25;13.50;99.90
21906;DHT22;11117;48.644;9.006;2022-10-14T04:18:51;13.60;99.90
21906;DHT22;11117;48.644;9.006;2022-10-14T04:21:16;13.60;99.90
21906;DHT22;11117;48.644;9.006;2022-10-14T04:23:42;13.60;99.90
21906;DHT22;11117;48.644;9.006;2022-10-14T04:26:08;13.60;99.90
21906;DHT22;11117;48.644;9.006;2022-10-14T04:28:34;13.60;99.90
21906;DHT22;11117;48.644;9.006;2022-10-14T04:31:00;13.60;99.90
21906;DHT22;11117;48.644;9.006;2022-10-14T04:33:26;13.60;99.90
21906;DHT22;11117;48.644;9.006;2022-10-14T04:35:59;13.60;99.90
21906;DHT22;11117;48.644;9.006;2022-10-14T04:38:24;13.50;99.90
21906;DHT22;11117;48.644;9.006;2022-10-14T04:40:50;13.60;99.90
21906;DHT22;11117;48.644;9.006;2022-10-14T04:43:16;13.60;99.90
21906;DHT22;11117;48.644;9.006;2022-10-14T04:45:41;13.50;99.90
21906;DHT22;11117;48.644;9.006;2022-10-14T04:48:07;13.60;99.90
21906;DHT22;11117;48.644;9.006;2022-10-14T04:50:32;13.50;99.90
21906;DHT22;11117;48.644;9.006;2022-10-14T04:52:58;13.50;99.90
21906;DHT22;11117;48.644;9.006;2022-10-14T04:55:23;13.50;99.90
21906;DHT22;11117;48.644;9.006;2022-10-14T04:57:50;13.50;99.90
21906;DHT22;11117;48.644;9.006;2022-10-14T05:00:16;13.60;99.90
21906;DHT22;11117;48.644;9.006;2022-10-14T05:02:41;13.50;99.90
21906;DHT22;11117;48.644;9.006;2022-10-14T05:05:07;13.50;99.90
21906;DHT22;11117;48.644;9.006;2022-10-14T05:07:33;13.50;99.90
21906;DHT22;11117;48.644;9.006;2022-10-14T05:09:59;13.50;99.90
21906;DHT22;11117;48.644;9.006;2022-10-14T05:12:25;13.60;99.90
21906;DHT22;11117;48.644;9.006;2022-10-14T05:14:50;13.50;99.90
21906;DHT22;11117;48.644;9.006;2022-10-14T05:17:16;13.50;99.90
21906;DHT22;11117;48.644;9.006;2022-10-14T05:19:41;13.50;99.90
21906;DHT22;11117;48.644;9.006;2022-10-14T05:22:07;13.50;99.90
21906;DHT22;11117;48.644;9.006;2022-10-14T05:24:32;13.50;99.90
21906;DHT22;11117;48.644;9.006;2022-10-14T05:26:58;13.50;99.90
21906;DHT22;11117;48.644;9.006;2022-10-14T05:29:23;13.50;99.90
21906;DHT22;11117;48.644;9.006;2022-10-14T05:31:49;13.50;99.90
21906;DHT22;11117;48.644;9.006;2022-10-14T05:34:14;13.50;99.90
21906;DHT22;11117;48.644;9.006;2022-10-14T05:36:40;13.50;99.90
21906;DHT22;11117;48.644;9.006;2022-10-14T05:39:08;13.50;99.90
21906;DHT22;11117;48.644;9.006;2022-10-14T05:41:34;13.50;99.90
21906;DHT22;11117;48.644;9.006;2022-10-14T05:43:59;13.60;99.90
21906;DHT22;11117;48.644;9.006;2022-10-14T05:46:25;13.60;99.90
21906;DHT22;11117;48.644;9.006;2022-10-14T05:48:51;13.60;99.90
21906;DHT22;11117;48.644;9.006;2022-10-14T05:51:16;13.50;99.90
21906;DHT22;11117;48.644;9.006;2022-10-14T05:53:42;13.50;99.90
21906;DHT22;11117;48.644;9.006;2022-10-14T05:56:09;13.60;99.90
21906;DHT22;11117;48.644;9.006;2022-10-14T05:58:34;13.60;99.90
21906;DHT22;11117;48.644;9.006;2022-10-14T06:01:00;13.50;99.90
21906;DHT22;11117;48.644;9.006;2022-10-14T06:03:27;13.60;99.90
21906;DHT22;11117;48.644;9.006;2022-10-14T06:05:52;13.60;99.90
21906;DHT22;11117;48.644;9.006;2022-10-14T06:08:18;13.60;99.90
21906;DHT22;11117;48.644;9.006;2022-10-14T06:10:43;13.70;99.90
21906;DHT22;11117;48.644;9.006;2022-10-14T06:13:09;13.70;99.90
21906;DHT22;11117;48.644;9.006;2022-10-14T06:15:35;13.60;99.90
21906;DHT22;11117;48.644;9.006;2022-10-14T06:18:00;13.50;99.90
21906;DHT22;11117;48.644;9.006;2022-10-14T06:20:26;13.60;99.90
21906;DHT22;11117;48.644;9.006;2022-10-14T06:22:52;13.60;99.90
21906;DHT22;11117;48.644;9.006;2022-10-14T06:25:17;13.60;99.90
21906;DHT22;11117;48.644;9.006;2022-10-14T06:27:43;13.60;99.90
21906;DHT22;11117;48.644;9.006;2022-10-14T06:30:09;13.80;99.90
21906;DHT22;11117;48.644;9.006;2022-10-14T06:32:35;13.80;99.90
21906;DHT22;11117;48.644;9.006;2022-10-14T06:35:00;13.80;99.90
21906;DHT22;11117;48.644;9.006;2022-10-14T06:37:26;13.90;99.90
21906;DHT22;11117;48.644;9.006;2022-10-14T06:39:51;13.90;99.90
21906;DHT22;11117;48.644;9.006;2022-10-14T06:42:17;14.00;99.90
21906;DHT22;11117;48.644;9.006;2022-10-14T06:44:42;14.10;99.90
21906;DHT22;11117;48.644;9.006;2022-10-14T06:47:08;14.30;99.90
21906;DHT22;11117;48.644;9.006;2022-10-14T06:49:34;14.30;99.90
21906;DHT22;11117;48.644;9.006;2022-10-14T06:51:59;14.30;99.90
21906;DHT22;11117;48.644;9.006;2022-10-14T06:54:25;14.40;99.90
21906;DHT22;11117;48.644;9.006;2022-10-14T06:56:50;14.30;99.90
21906;DHT22;11117;48.644;9.006;2022-10-14T06:59:16;14.40;99.90
21906;DHT22;11117;48.644;9.006;2022-10-14T07:01:41;14.50;99.90
21906;DHT22;11117;48.644;9.006;2022-10-14T07:04:07;14.50;99.90
21906;DHT22;11117;48.644;9.006;2022-10-14T07:06:32;14.40;99.90
21906;DHT22;11117;48.644;9.006;2022-10-14T07:08:58;14.40;99.90
21906;DHT22;11117;48.644;9.006;2022-10-14T07:11:23;14.50;99.90
21906;DHT22;11117;48.644;9.006;2022-10-14T07:13:49;14.60;99.90
21906;DHT22;11117;48.644;9.006;2022-10-14T07:16:15;14.70;99.90
21906;DHT22;11117;48.644;9.006;2022-10-14T07:18:41;14.90;99.90
21906;DHT22;11117;48.644;9.006;2022-10-14T07:21:07;15.00;99.90
21906;DHT22;11117;48.644;9.006;2022-10-14T07:23:33;15.10;99.90
21906;DHT22;11117;48.644;9.006;2022-10-14T07:25:59;15.20;99.90
21906;DHT22;11117;48.644;9.006;2022-10-14T07:28:25;15.30;99.90
21906;DHT22;11117;48.644;9.006;2022-10-14T07:31:05;15.30;99.90
21906;DHT22;11117;48.644;9.006;2022-10-14T07:33:31;15.40;99.90
21906;DHT22;11117;48.644;9.006;2022-10-14T07:36:01;15.50;99.90
21906;DHT22;11117;48.644;9.006;2022-10-14T07:38:27;15.60;99.90
21906;DHT22;11117;48.644;9.006;2022-10-14T07:40:59;15.50;99.90
21906;DHT22;11117;48.644;9.006;2022-10-14T07:43:26;15.60;99.90
21906;DHT22;11117;48.644;9.006;2022-10-14T07:45:51;15.60;99.90
21906;DHT22;11117;48.644;9.006;2022-10-14T07:48:17;15.70;99.90
21906;DHT22;11117;48.644;9.006;2022-10-14T07:50:48;15.70;99.90
21906;DHT22;11117;48.644;9.006;2022-10-14T07:53:14;15.80;99.90
21906;DHT22;11117;48.644;9.006;2022-10-14T07:55:43;16.00;99.90
21906;DHT22;11117;48.644;9.006;2022-10-14T07:58:08;16.20;99.90
21906;DHT22;11117;48.644;9.006;2022-10-14T08:00:34;16.30;99.90
21906;DHT22;11117;48.644;9.006;2022-10-14T08:02:59;16.40;99.90
21906;DHT22;11117;48.644;9.006;2022-10-14T08:05:25;16.50;99.90
21906;DHT22;11117;48.644;9.006;2022-10-14T08:07:50;16.60;99.90
21906;DHT22;11117;48.644;9.006;2022-10-14T08:10:16;16.70;99.90
21906;DHT22;11117;48.644;9.006;2022-10-14T08:12:41;16.70;99.90
21906;DHT22;11117;48.644;9.006;2022-10-14T08:15:07;16.80;99.90
21906;DHT22;11117;48.644;9.006;2022-10-14T08:17:33;16.90;99.90
21906;DHT22;11117;48.644;9.006;2022-10-14T08:19:58;17.10;99.90
21906;DHT22;11117;48.644;9.006;2022-10-14T08:22:24;17.20;99.90
21906;DHT22;11117;48.644;9.006;2022-10-14T08:24:49;17.20;99.90
21906;DHT22;11117;48.644;9.006;2022-10-14T08:27:15;17.30;99.90
21906;DHT22;11117;48.644;9.006;2022-10-14T08:29:40;17.30;99.90
21906;DHT22;11117;48.644;9.006;2022-10-14T08:32:06;17.40;99.90
21906;DHT22;11117;48.644;9.006;2022-10-14T08:34:32;17.40;99.90
21906;DHT22;11117;48.644;9.006;2022-10-14T08:36:57;17.40;99.90
21906;DHT22;11117;48.644;9.006;2022-10-14T08:39:23;17.50;99.90
21906;DHT22;11117;48.644;9.006;2022-10-14T08:44:32;17.50;99.90
21906;DHT22;11117;48.644;9.006;2022-10-14T08:47:03;17.60;99.90
21906;DHT22;11117;48.644;9.006;2022-10-14T08:52:10;17.70;99.90
21906;DHT22;11117;48.644;9.006;2022-10-14T08:54:40;17.60;99.90
21906;DHT22;11117;48.644;9.006;2022-10-14T08:57:15;17.50;99.90
21906;DHT22;11117;48.644;9.006;2022-10-14T08:59:42;17.60;99.90
21906;DHT22;11117;48.644;9.006;2022-10-14T09:02:18;17.60;99.90
21906;DHT22;11117;48.644;9.006;2022-10-14T09:04:45;17.40;99.90
21906;DHT22;11117;48.644;9.006;2022-10-14T09:07:16;17.40;99.90
21906;DHT22;11117;48.644;9.006;2022-10-14T09:09:45;17.50;99.90
21906;DHT22;11117;48.644;9.006;2022-10-14T09:12:20;17.50;99.90
21906;DHT22;11117;48.644;9.006;2022-10-14T09:15:13;17.70;99.90
21906;DHT22;11117;48.644;9.006;2022-10-14T09:20:27;17.70;99.90
21906;DHT22;11117;48.644;9.006;2022-10-14T09:23:08;17.60;99.90
21906;DHT22;11117;48.644;9.006;2022-10-14T09:25:36;17.80;99.90
21906;DHT22;11117;48.644;9.006;2022-10-14T09:28:05;18.10;99.90
21906;DHT22;11117;48.644;9.006;2022-10-14T09:30:35;18.10;99.90
21906;DHT22;11117;48.644;9.006;2022-10-14T09:33:01;18.20;99.90
21906;DHT22;11117;48.644;9.006;2022-10-14T09:35:33;18.40;99.90
21906;DHT22;11117;48.644;9.006;2022-10-14T09:37:59;18.50;99.90
21906;DHT22;11117;48.644;9.006;2022-10-14T09:40:34;18.60;99.90
21906;DHT22;11117;48.644;9.006;2022-10-14T09:46:03;18.80;99.90
21906;DHT22;11117;48.644;9.006;2022-10-14T09:48:37;19.00;99.90
21906;DHT22;11117;48.644;9.006;2022-10-14T09:51:25;19.10;99.90
21906;DHT22;11117;48.644;9.006;2022-10-14T09:53:54;19.10;99.90
21906;DHT22;11117;48.644;9.006;2022-10-14T09:56:34;19.10;99.90
21906;DHT22;11117;48.644;9.006;2022-10-14T09:59:01;19.10;99.90
21906;DHT22;11117;48.644;9.006;2022-10-14T10:01:31;19.00;99.90
21906;DHT22;11117;48.644;9.006;2022-10-14T10:04:23;19.20;99.90
21906;DHT22;11117;48.644;9.006;2022-10-14T10:06:53;19.30;99.90
21906;DHT22;11117;48.644;9.006;2022-10-14T10:09:20;19.30;99.90
21906;DHT22;11117;48.644;9.006;2022-10-14T10:11:46;19.50;99.90
21906;DHT22;11117;48.644;9.006;2022-10-14T10:14:22;19.60;99.90
21906;DHT22;11117;48.644;9.006;2022-10-14T10:16:50;19.70;99.90
21906;DHT22;11117;48.644;9.006;2022-10-14T10:19:28;19.60;99.90
21906;DHT22;11117;48.644;9.006;2022-10-14T10:22:23;19.30;99.90
21906;DHT22;11117;48.644;9.006;2022-10-14T10:24:51;19.20;99.90
21906;DHT22;11117;48.644;9.006;2022-10-14T10:27:39;19.10;99.90
21906;DHT22;11117;48.644;9.006;2022-10-14T10:30:31;19.20;99.90
21906;DHT22;11117;48.644;9.006;2022-10-14T10:33:41;19.20;99.90
21906;DHT22;11117;48.644;9.006;2022-10-14T10:36:17;18.80;99.90
21906;DHT22;11117;48.644;9.006;2022-10-14T10:39:01;19.00;99.90
21906;DHT22;11117;48.644;9.006;2022-10-14T10:47:01;18.70;99.90
21906;DHT22;11117;48.644;9.006;2022-10-14T10:52:41;18.70;99.90
21906;DHT22;11117;48.644;9.006;2022-10-14T11:03:31;18.60;99.90
21906;DHT22;11117;48.644;9.006;2022-10-14T11:06:09;18.70;99.90
21906;DHT22;11117;48.644;9.006;2022-10-14T11:09:04;18.70;99.90
21906;DHT22;11117;48.644;9.006;2022-10-14T11:17:25;18.70;99.90
21906;DHT22;11117;48.644;9.006;2022-10-14T11:22:58;18.90;99.90
21906;DHT22;11117;48.644;9.006;2022-10-14T11:31:39;19.50;99.90
21906;DHT22;11117;48.644;9.006;2022-10-14T11:37:19;19.60;99.90
21906;DHT22;11117;48.644;9.006;2022-10-14T11:40:08;19.90;99.90
21906;DHT22;11117;48.644;9.006;2022-10-14T11:47:56;19.50;99.90
21906;DHT22;11117;48.644;9.006;2022-10-14T11:50:34;19.80;99.90
21906;DHT22;11117;48.644;9.006;2022-10-14T11:53:21;20.00;99.90
21906;DHT22;11117;48.644;9.006;2022-10-14T11:55:58;19.90;99.90
21906;DHT22;11117;48.644;9.006;2022-10-14T11:58:28;20.20;99.90
21906;DHT22;11117;48.644;9.006;2022-10-14T12:01:15;20.30;99.90
21906;DHT22;11117;48.644;9.006;2022-10-14T12:06:28;20.50;99.90
21906;DHT22;11117;48.644;9.006;2022-10-14T12:09:14;20.60;99.90
21906;DHT22;11117;48.644;9.006;2022-10-14T12:11:55;20.60;99.90
21906;DHT22;11117;48.644;9.006;2022-10-14T12:14:32;20.50;99.90
21906;DHT22;11117;48.644;9.006;2022-10-14T12:17:03;20.30;99.90
21906;DHT22;11117;48.644;9.006;2022-10-14T12:19:29;20.20;99.90
21906;DHT22;11117;48.644;9.006;2022-10-14T12:22:15;20.20;99.90
21906;DHT22;11117;48.644;9.006;2022-10-14T12:24:54;20.10;99.90
21906;DHT22;11117;48.644;9.006;2022-10-14T12:27:23;19.90;99.90
21906;DHT22;11117;48.644;9.006;2022-10-14T12:29:51;19.90;99.90
21906;DHT22;11117;48.644;9.006;2022-10-14T12:32:21;19.90;99.90
21906;DHT22;11117;48.644;9.006;2022-10-14T12:34:52;20.00;99.90
21906;DHT22;11117;48.644;9.006;2022-10-14T12:42:31;20.00;99.90
21906;DHT22;11117;48.644;9.006;2022-10-14T12:45:03;20.00;99.90
21906;DHT22;11117;48.644;9.006;2022-10-14T12:47:37;20.00;99.90
21906;DHT22;11117;48.644;9.006;2022-10-14T12:50:21;19.90;99.90
21906;DHT22;11117;48.644;9.006;2022-10-14T12:53:05;20.00;99.90
21906;DHT22;11117;48.644;9.006;2022-10-14T12:55:38;19.90;99.90
21906;DHT22;11117;48.644;9.006;2022-10-14T12:58:25;19.80;99.90
21906;DHT22;11117;48.644;9.006;2022-10-14T13:00:54;19.80;99.90
21906;DHT22;11117;48.644;9.006;2022-10-14T13:03:24;19.60;99.90
21906;DHT22;11117;48.644;9.006;2022-10-14T13:05:50;19.60;99.90
21906;DHT22;11117;48.644;9.006;2022-10-14T13:21:07;19.50;99.90
21906;DHT22;11117;48.644;9.006;2022-10-14T13:23:45;19.60;99.90
21906;DHT22;11117;48.644;9.006;2022-10-14T13:26:37;19.60;99.90
21906;DHT22;11117;48.644;9.006;2022-10-14T13:34:33;19.60;99.90
21906;DHT22;11117;48.644;9.006;2022-10-14T13:39:50;19.30;99.90
21906;DHT22;11117;48.644;9.006;2022-10-14T13:42:22;19.30;99.90
21906;DHT22;11117;48.644;9.006;2022-10-14T13:44:49;19.10;99.90
21906;DHT22;11117;48.644;9.006;2022-10-14T13:47:19;18.90;99.90
21906;DHT22;11117;48.644;9.006;2022-10-14T13:49:49;18.70;99.90
21906;DHT22;11117;48.644;9.006;2022-10-14T13:52:19;18.70;99.90
21906;DHT22;11117;48.644;9.006;2022-10-14T13:54:45;18.70;99.90
21906;DHT22;11117;48.644;9.006;2022-10-14T13:57:13;18.80;99.90
21906;DHT22;11117;48.644;9.006;2022-10-14T13:59:44;18.80;99.90
21906;DHT22;11117;48.644;9.006;2022-10-14T14:02:19;18.90;99.90
21906;DHT22;11117;48.644;9.006;2022-10-14T14:04:56;18.80;99.90
21906;DHT22;11117;48.644;9.006;2022-10-14T14:07:32;18.80;99.90
21906;DHT22;11117;48.644;9.006;2022-10-14T14:10:06;18.60;99.90
21906;DHT22;11117;48.644;9.006;2022-10-14T14:12:33;18.70;99.90
21906;DHT22;11117;48.644;9.006;2022-10-14T14:14:59;18.50;99.90
21906;DHT22;11117;48.644;9.006;2022-10-14T14:17:26;18.30;99.90
21906;DHT22;11117;48.644;9.006;2022-10-14T14:19:53;18.40;99.90
21906;DHT22;11117;48.644;9.006;2022-10-14T14:24:46;18.40;99.90
21906;DHT22;11117;48.644;9.006;2022-10-14T14:27:20;18.30;99.90
21906;DHT22;11117;48.644;9.006;2022-10-14T14:29:51;18.20;99.90
21906;DHT22;11117;48.644;9.006;2022-10-14T14:32:28;18.20;99.90
21906;DHT22;11117;48.644;9.006;2022-10-14T14:34:54;18.30;99.90
21906;DHT22;11117;48.644;9.006;2022-10-14T14:37:28;18.10;99.90
21906;DHT22;11117;48.644;9.006;2022-10-14T14:39:56;18.10;99.90
21906;DHT22;11117;48.644;9.006;2022-10-14T14:42:23;18.20;99.90
21906;DHT22;11117;48.644;9.006;2022-10-14T14:44:50;18.10;99.90
21906;DHT22;11117;48.644;9.006;2022-10-14T14:47:16;18.00;99.90
21906;DHT22;11117;48.644;9.006;2022-10-14T14:49:42;17.90;99.90
21906;DHT22;11117;48.644;9.006;2022-10-14T14:52:11;17.60;99.90
21906;DHT22;11117;48.644;9.006;2022-10-14T14:54:44;17.50;99.90
21906;DHT22;11117;48.644;9.006;2022-10-14T14:57:15;17.50;99.90
21906;DHT22;11117;48.644;9.006;2022-10-14T15:00:00;17.60;99.90
21906;DHT22;11117;48.644;9.006;2022-10-14T15:02:27;17.70;99.90
21906;DHT22;11117;48.644;9.006;2022-10-14T15:05:11;17.70;99.90
21906;DHT22;11117;48.644;9.006;2022-10-14T15:07:41;17.80;99.90
21906;DHT22;11117;48.644;9.006;2022-10-14T15:10:18;17.70;99.90
21906;DHT22;11117;48.644;9.006;2022-10-14T15:12:54;17.60;99.90
21906;DHT22;11117;48.644;9.006;2022-10-14T15:15:31;17.60;99.90
21906;DHT22;11117;48.644;9.006;2022-10-14T15:18:27;17.50;99.90
21906;DHT22;11117;48.644;9.006;2022-10-14T15:23:41;17.50;99.90
21906;DHT22;11117;48.644;9.006;2022-10-14T15:26:27;17.50;99.90
21906;DHT22;11117;48.644;9.006;2022-10-14T15:29:13;17.40;99.90
21906;DHT22;11117;48.644;9.006;2022-10-14T15:31:51;17.30;99.90
21906;DHT22;11117;48.644;9.006;2022-10-14T15:34:27;17.20;99.90
21906;DHT22;11117;48.644;9.006;2022-10-14T15:36:53;17.20;99.90
21906;DHT22;11117;48.644;9.006;2022-10-14T15:39:20;17.10;99.90
21906;DHT22;11117;48.644;9.006;2022-10-14T15:41:46;17.10;99.90
21906;DHT22;11117;48.644;9.006;2022-10-14T15:44:11;17.00;99.90
21906;DHT22;11117;48.644;9.006;2022-10-14T15:46:38;16.90;99.90
21906;DHT22;11117;48.644;9.006;2022-10-14T15:49:12;16.90;99.90
21906;DHT22;11117;48.644;9.006;2022-10-14T15:51:39;16.80;99.90
21906;DHT22;11117;48.644;9.006;2022-10-14T15:54:04;16.70;99.90
21906;DHT22;11117;48.644;9.006;2022-10-14T15:56:33;16.60;99.90
21906;DHT22;11117;48.644;9.006;2022-10-14T15:58:58;16.40;99.90
21906;DHT22;11117;48.644;9.006;2022-10-14T16:01:24;16.40;99.90
21906;DHT22;11117;48.644;9.006;2022-10-14T16:03:50;16.40;99.90
21906;DHT22;11117;48.644;9.006;2022-10-14T16:06:22;16.30;99.90
21906;DHT22;11117;48.644;9.006;2022-10-14T16:08:47;16.20;99.90
21906;DHT22;11117;48.644;9.006;2022-10-14T16:11:26;16.20;99.90
21906;DHT22;11117;48.644;9.006;2022-10-14T16:13:52;16.20;99.90
21906;DHT22;11117;48.644;9.006;2022-10-14T16:16:23;16.20;99.90
21906;DHT22;11117;48.644;9.006;2022-10-14T16:18:49;16.20;99.90
21906;DHT22;11117;48.644;9.006;2022-10-14T16:21:16;16.00;99.90
21906;DHT22;11117;48.644;9.006;2022-10-14T16:23:41;15.90;99.90
21906;DHT22;11117;48.644;9.006;2022-10-14T16:26:07;15.80;99.90
21906;DHT22;11117;48.644;9.006;2022-10-14T16:28:33;15.80;99.90
21906;DHT22;11117;48.644;9.006;2022-10-14T16:30:58;15.70;99.90
21906;DHT22;11117;48.644;9.006;2022-10-14T16:33:27;15.70;99.90
21906;DHT22;11117;48.644;9.006;2022-10-14T16:35:54;15.70;99.90
21906;DHT22;11117;48.644;9.006;2022-10-14T16:38:21;15.60;99.90
21906;DHT22;11117;48.644;9.006;2022-10-14T16:40:57;15.50;99.90
21906;DHT22;11117;48.644;9.006;2022-10-14T16:43:23;15.60;99.90
21906;DHT22;11117;48.644;9.006;2022-10-14T16:45:55;15.50;99.90
21906;DHT22;11117;48.644;9.006;2022-10-14T16:48:21;15.50;99.90
21906;DHT22;11117;48.644;9.006;2022-10-14T16:50:50;15.50;99.90
21906;DHT22;11117;48.644;9.006;2022-10-14T16:53:16;15.60;99.90
21906;DHT22;11117;48.644;9.006;2022-10-14T16:55:42;15.60;99.90
21906;DHT22;11117;48.644;9.006;2022-10-14T16:58:07;15.50;99.90
21906;DHT22;11117;48.644;9.006;2022-10-14T17:00:33;15.60;99.90
21906;DHT22;11117;48.644;9.006;2022-10-14T17:02:58;15.50;99.90
21906;DHT22;11117;48.644;9.006;2022-10-14T17:05:24;15.50;99.90
21906;DHT22;11117;48.644;9.006;2022-10-14T17:07:49;15.60;99.90
21906;DHT22;11117;48.644;9.006;2022-10-14T17:10:15;15.50;99.90
21906;DHT22;11117;48.644;9.006;2022-10-14T17:12:40;15.50;99.90
21906;DHT22;11117;48.644;9.006;2022-10-14T17:15:06;15.50;99.90
21906;DHT22;11117;48.644;9.006;2022-10-14T17:17:32;15.50;99.90
21906;DHT22;11117;48.644;9.006;2022-10-14T17:19:57;15.50;99.90
21906;DHT22;11117;48.644;9.006;2022-10-14T17:22:23;15.40;99.90
21906;DHT22;11117;48.644;9.006;2022-10-14T17:24:49;15.40;99.90
21906;DHT22;11117;48.644;9.006;2022-10-14T17:27:16;15.40;99.90